sensor_id;sensor_type;location;lat;lon;timestamp;temperature;humidity
5806;DHT22;2929;50.810;8.342;2023-06-22T00:01:13;18.20;99.90
5806;DHT22;2929;50.810;8.342;2023-06-22T00:03:40;18.30;99.90
5806;DHT22;2929;50.810;8.342;2023-06-22T00:06:07;18.30;99.90
5806;DHT22;2929;50.810;8.342;2023-06-22T00:08:35;18.40;99.90
5806;DHT22;2929;50.810;8.342;2023-06-22T00:11:02;18.50;99.90
5806;DHT22;2929;50.810;8.342;2023-06-22T00:13:29;18.50;99.90
5806;DHT22;2929;50.810;8.342;2023-06-22T00:15:56;18.50;99.90
5806;DHT22;2929;50.810;8.342;2023-06-22T00:18:23;18.50;99.90
5806;DHT22;2929;50.810;8.342;2023-06-22T00:20:54;18.50;99.90
5806;DHT22;2929;50.810;8.342;2023-06-22T00:23:23;18.50;99.90
5806;DHT22;2929;50.810;8.342;2023-06-22T00:25:51;18.50;99.90
5806;DHT22;2929;50.810;8.342;2023-06-22T00:28:18;18.50;99.90
5806;DHT22;2929;50.810;8.342;2023-06-22T00:30:45;18.50;99.90
5806;DHT22;2929;50.810;8.342;2023-06-22T00:33:13;18.50;99.90
5806;DHT22;2929;50.810;8.342;2023-06-22T00:35:40;18.50;99.90
5806;DHT22;2929;50.810;8.342;2023-06-22T00:38:08;18.50;99.90
5806;DHT22;2929;50.810;8.342;2023-06-22T00:40:35;18.50;99.90
5806;DHT22;2929;50.810;8.342;2023-06-22T00:43:04;18.60;99.90
5806;DHT22;2929;50.810;8.342;2023-06-22T00:45:31;18.60;99.90
5806;DHT22;2929;50.810;8.342;2023-06-22T00:47:58;18.60;99.90
5806;DHT22;2929;50.810;8.342;2023-06-22T00:50:27;18.70;99.90
5806;DHT22;2929;50.810;8.342;2023-06-22T00:53:00;18.70;99.90
5806;DHT22;2929;50.810;8.342;2023-06-22T00:55:29;18.70;99.90
5806;DHT22;2929;50.810;8.342;2023-06-22T00:57:56;18.70;99.90
5806;DHT22;2929;50.810;8.342;2023-06-22T01:00:24;18.80;99.90
5806;DHT22;2929;50.810;8.342;2023-06-22T01:02:53;18.70;99.90
5806;DHT22;2929;50.810;8.342;2023-06-22T01:05:21;18.70;99.90
5806;DHT22;2929;50.810;8.342;2023-06-22T01:08:04;18.60;99.90
5806;DHT22;2929;50.810;8.342;2023-06-22T01:10:38;18.50;99.90
5806;DHT22;2929;50.810;8.342;2023-06-22T01:13:18;18.60;99.90
5806;DHT22;2929;50.810;8.342;2023-06-22T01:15:55;18.60;99.90
5806;DHT22;2929;50.810;8.342;2023-06-22T01:18:25;18.60;99.90
5806;DHT22;2929;50.810;8.342;2023-06-22T01:20:54;18.60;99.90
5806;DHT22;2929;50.810;8.342;2023-06-22T01:23:29;18.60;99.90
5806;DHT22;2929;50.810;8.342;2023-06-22T01:26:04;18.60;99.90
5806;DHT22;2929;50.810;8.342;2023-06-22T01:28:43;18.60;99.90
5806;DHT22;2929;50.810;8.342;2023-06-22T01:31:14;18.70;99.90
5806;DHT22;2929;50.810;8.342;2023-06-22T01:33:45;18.70;99.90
5806;DHT22;2929;50.810;8.342;2023-06-22T01:36:14;18.60;99.90
5806;DHT22;2929;50.810;8.342;2023-06-22T01:38:46;18.60;99.90
5806;DHT22;2929;50.810;8.342;2023-06-22T01:41:13;18.60;99.90
5806;DHT22;2929;50.810;8.342;2023-06-22T01:43:44;18.60;99.90
5806;DHT22;2929;50.810;8.342;2023-06-22T01:46:12;18.60;99.90
5806;DHT22;2929;50.810;8.342;2023-06-22T01:48:39;18.60;99.90
5806;DHT22;2929;50.810;8.342;2023-06-22T01:51:06;18.50;99.90
5806;DHT22;2929;50.810;8.342;2023-06-22T01:53:33;18.50;99.90
5806;DHT22;2929;50.810;8.342;2023-06-22T01:56:00;18.50;99.90
5806;DHT22;2929;50.810;8.342;2023-06-22T01:58:30;18.60;99.90
5806;DHT22;2929;50.810;8.342;2023-06-22T02:01:12;18.50;99.90
5806;DHT22;2929;50.810;8.342;2023-06-22T02:03:44;18.50;99.90
5806;DHT22;2929;50.810;8.342;2023-06-22T02:06:17;18.60;99.90
5806;DHT22;2929;50.810;8.342;2023-06-22T02:08:48;18.50;99.90
5806;DHT22;2929;50.810;8.342;2023-06-22T02:11:18;18.50;99.90
5806;DHT22;2929;50.810;8.342;2023-06-22T02:13:47;18.60;99.90
5806;DHT22;2929;50.810;8.342;2023-06-22T02:16:16;18.60;99.90
5806;DHT22;2929;50.810;8.342;2023-06-22T02:18:46;18.60;99.90
5806;DHT22;2929;50.810;8.342;2023-06-22T02:21:14;18.60;99.90
5806;DHT22;2929;50.810;8.342;2023-06-22T02:23:41;18.50;99.90
5806;DHT22;2929;50.810;8.342;2023-06-22T02:26:08;18.50;99.90
5806;DHT22;2929;50.810;8.342;2023-06-22T02:28:35;18.60;99.90
5806;DHT22;2929;50.810;8.342;2023-06-22T02:31:02;18.60;99.90
5806;DHT22;2929;50.810;8.342;2023-06-22T02:33:31;18.60;99.90
5806;DHT22;2929;50.810;8.342;2023-06-22T02:35:58;18.60;99.90
5806;DHT22;2929;50.810;8.342;2023-06-22T02:38:25;18.60;99.90
5806;DHT22;2929;50.810;8.342;2023-06-22T02:40:52;18.60;99.90
5806;DHT22;2929;50.810;8.342;2023-06-22T02:43:19;18.50;99.90
5806;DHT22;2929;50.810;8.342;2023-06-22T02:45:46;18.50;99.90
5806;DHT22;2929;50.810;8.342;2023-06-22T02:48:12;18.50;99.90
5806;DHT22;2929;50.810;8.342;2023-06-22T02:50:41;18.50;99.90
5806;DHT22;2929;50.810;8.342;2023-06-22T02:53:08;18.60;99.90
5806;DHT22;2929;50.810;8.342;2023-06-22T02:55:38;18.50;99.90
5806;DHT22;2929;50.810;8.342;2023-06-22T02:58:05;18.50;99.90
5806;DHT22;2929;50.810;8.342;2023-06-22T03:00:35;18.50;99.90
5806;DHT22;2929;50.810;8.342;2023-06-22T03:03:02;18.50;99.90
5806;DHT22;2929;50.810;8.342;2023-06-22T03:05:29;18.60;99.90
5806;DHT22;2929;50.810;8.342;2023-06-22T03:08:00;18.50;99.90
5806;DHT22;2929;50.810;8.342;2023-06-22T03:10:31;18.50;99.90
5806;DHT22;2929;50.810;8.342;2023-06-22T03:12:58;18.40;99.90
5806;DHT22;2929;50.810;8.342;2023-06-22T03:15:25;18.40;99.90
5806;DHT22;2929;50.810;8.342;2023-06-22T03:17:55;18.40;99.90
5806;DHT22;2929;50.810;8.342;2023-06-22T03:20:23;18.50;99.90
5806;DHT22;2929;50.810;8.342;2023-06-22T03:22:50;18.40;99.90
5806;DHT22;2929;50.810;8.342;2023-06-22T03:25:19;18.40;99.90
5806;DHT22;2929;50.810;8.342;2023-06-22T03:27:48;18.50;99.90
5806;DHT22;2929;50.810;8.342;2023-06-22T03:30:15;18.50;99.90
5806;DHT22;2929;50.810;8.342;2023-06-22T03:32:42;18.50;99.90
5806;DHT22;2929;50.810;8.342;2023-06-22T03:35:09;18.50;99.90
5806;DHT22;2929;50.810;8.342;2023-06-22T03:37:39;18.50;99.90
5806;DHT22;2929;50.810;8.342;2023-06-22T03:40:07;18.50;99.90
5806;DHT22;2929;50.810;8.342;2023-06-22T03:42:36;18.50;99.90
5806;DHT22;2929;50.810;8.342;2023-06-22T03:45:04;18.50;99.90
5806;DHT22;2929;50.810;8.342;2023-06-22T03:47:32;18.50;99.90
5806;DHT22;2929;50.810;8.342;2023-06-22T03:49:59;18.50;99.90
5806;DHT22;2929;50.810;8.342;2023-06-22T03:52:29;18.50;99.90
5806;DHT22;2929;50.810;8.342;2023-06-22T03:54:55;18.60;99.90
5806;DHT22;2929;50.810;8.342;2023-06-22T03:57:23;18.60;99.90
5806;DHT22;2929;50.810;8.342;2023-06-22T03:59:51;18.60;99.90
5806;DHT22;2929;50.810;8.342;2023-06-22T04:02:18;18.60;99.90
5806;DHT22;2929;50.810;8.342;2023-06-22T04:04:45;18.60;99.90
5806;DHT22;2929;50.810;8.342;2023-06-22T04:07:12;18.60;99.90
5806;DHT22;2929;50.810;8.342;2023-06-22T04:09:39;18.50;99.90
5806;DHT22;2929;50.810;8.342;2023-06-22T04:12:06;18.50;99.90
5806;DHT22;2929;50.810;8.342;2023-06-22T04:14:34;18.60;99.90
5806;DHT22;2929;50.810;8.342;2023-06-22T04:17:02;18.60;99.90
5806;DHT22;2929;50.810;8.342;2023-06-22T04:19:29;18.60;99.90
5806;DHT22;2929;50.810;8.342;2023-06-22T04:21:56;18.70;99.90
5806;DHT22;2929;50.810;8.342;2023-06-22T04:24:23;18.70;99.90
5806;DHT22;2929;50.810;8.342;2023-06-22T04:26:50;18.70;99.90
5806;DHT22;2929;50.810;8.342;2023-06-22T04:29:23;18.80;99.90
5806;DHT22;2929;50.810;8.342;2023-06-22T04:31:54;18.80;99.90
5806;DHT22;2929;50.810;8.342;2023-06-22T04:34:25;18.80;99.90
5806;DHT22;2929;50.810;8.342;2023-06-22T04:36:52;18.90;99.90
5806;DHT22;2929;50.810;8.342;2023-06-22T04:39:19;18.90;99.90
5806;DHT22;2929;50.810;8.342;2023-06-22T04:41:46;19.00;99.90
5806;DHT22;2929;50.810;8.342;2023-06-22T04:44:15;19.00;99.90
5806;DHT22;2929;50.810;8.342;2023-06-22T04:46:49;19.00;99.90
5806;DHT22;2929;50.810;8.342;2023-06-22T04:49:19;19.00;99.90
5806;DHT22;2929;50.810;8.342;2023-06-22T04:51:48;19.00;99.90
5806;DHT22;2929;50.810;8.342;2023-06-22T04:54:17;19.00;99.90
5806;DHT22;2929;50.810;8.342;2023-06-22T04:56:44;19.00;99.90
5806;DHT22;2929;50.810;8.342;2023-06-22T04:59:12;19.10;99.90
5806;DHT22;2929;50.810;8.342;2023-06-22T05:01:40;19.10;99.90
5806;DHT22;2929;50.810;8.342;2023-06-22T05:04:08;19.10;99.90
5806;DHT22;2929;50.810;8.342;2023-06-22T05:06:35;19.10;99.90
5806;DHT22;2929;50.810;8.342;2023-06-22T05:09:03;19.20;99.90
5806;DHT22;2929;50.810;8.342;2023-06-22T05:11:31;19.20;99.90
5806;DHT22;2929;50.810;8.342;2023-06-22T05:13:58;19.20;99.90
5806;DHT22;2929;50.810;8.342;2023-06-22T05:16:25;19.30;99.90
5806;DHT22;2929;50.810;8.342;2023-06-22T05:18:53;19.30;99.90
5806;DHT22;2929;50.810;8.342;2023-06-22T05:21:25;19.30;99.90
5806;DHT22;2929;50.810;8.342;2023-06-22T05:23:52;19.30;99.90
5806;DHT22;2929;50.810;8.342;2023-06-22T05:26:22;19.30;99.90
5806;DHT22;2929;50.810;8.342;2023-06-22T05:28:49;19.30;99.90
5806;DHT22;2929;50.810;8.342;2023-06-22T05:31:16;19.40;99.90
5806;DHT22;2929;50.810;8.342;2023-06-22T05:33:46;19.50;99.90
5806;DHT22;2929;50.810;8.342;2023-06-22T05:36:13;19.50;99.90
5806;DHT22;2929;50.810;8.342;2023-06-22T05:38:41;19.50;99.90
5806;DHT22;2929;50.810;8.342;2023-06-22T05:41:08;19.60;99.90
5806;DHT22;2929;50.810;8.342;2023-06-22T05:43:36;19.60;99.90
5806;DHT22;2929;50.810;8.342;2023-06-22T05:46:04;19.70;99.90
5806;DHT22;2929;50.810;8.342;2023-06-22T05:48:31;19.80;99.90
5806;DHT22;2929;50.810;8.342;2023-06-22T05:50:59;19.70;99.90
5806;DHT22;2929;50.810;8.342;2023-06-22T05:53:26;19.70;99.90
5806;DHT22;2929;50.810;8.342;2023-06-22T05:55:53;19.80;99.90
5806;DHT22;2929;50.810;8.342;2023-06-22T05:58:21;19.80;99.90
5806;DHT22;2929;50.810;8.342;2023-06-22T06:00:49;19.90;99.90
5806;DHT22;2929;50.810;8.342;2023-06-22T06:03:16;19.90;99.90
5806;DHT22;2929;50.810;8.342;2023-06-22T06:05:44;20.00;99.90
5806;DHT22;2929;50.810;8.342;2023-06-22T06:08:11;20.10;99.90
5806;DHT22;2929;50.810;8.342;2023-06-22T06:10:38;20.10;99.90
5806;DHT22;2929;50.810;8.342;2023-06-22T06:13:06;20.20;99.90
5806;DHT22;2929;50.810;8.342;2023-06-22T06:15:33;20.20;99.90
5806;DHT22;2929;50.810;8.342;2023-06-22T06:18:02;20.30;99.90
5806;DHT22;2929;50.810;8.342;2023-06-22T06:20:31;20.30;99.90
5806;DHT22;2929;50.810;8.342;2023-06-22T06:22:58;20.50;99.90
5806;DHT22;2929;50.810;8.342;2023-06-22T06:25:25;20.60;99.90
5806;DHT22;2929;50.810;8.342;2023-06-22T06:27:53;20.60;99.90
5806;DHT22;2929;50.810;8.342;2023-06-22T06:30:21;20.60;99.90
5806;DHT22;2929;50.810;8.342;2023-06-22T06:32:49;20.70;99.90
5806;DHT22;2929;50.810;8.342;2023-06-22T06:35:18;20.80;99.90
5806;DHT22;2929;50.810;8.342;2023-06-22T06:37:46;20.70;99.90
5806;DHT22;2929;50.810;8.342;2023-06-22T06:40:14;20.80;99.90
5806;DHT22;2929;50.810;8.342;2023-06-22T06:42:42;20.90;99.90
5806;DHT22;2929;50.810;8.342;2023-06-22T06:45:11;21.00;99.90
5806;DHT22;2929;50.810;8.342;2023-06-22T06:47:39;21.10;99.90
5806;DHT22;2929;50.810;8.342;2023-06-22T06:50:07;21.20;99.90
5806;DHT22;2929;50.810;8.342;2023-06-22T06:52:36;21.20;99.90
5806;DHT22;2929;50.810;8.342;2023-06-22T06:55:03;21.20;99.90
5806;DHT22;2929;50.810;8.342;2023-06-22T06:57:34;21.30;99.90
5806;DHT22;2929;50.810;8.342;2023-06-22T07:00:03;21.30;99.90
5806;DHT22;2929;50.810;8.342;2023-06-22T07:02:35;21.30;99.90
5806;DHT22;2929;50.810;8.342;2023-06-22T07:05:03;21.40;99.90
5806;DHT22;2929;50.810;8.342;2023-06-22T07:07:30;21.50;99.90
5806;DHT22;2929;50.810;8.342;2023-06-22T07:09:58;21.60;99.90
5806;DHT22;2929;50.810;8.342;2023-06-22T07:12:25;21.80;99.90
5806;DHT22;2929;50.810;8.342;2023-06-22T07:14:52;21.80;99.90
5806;DHT22;2929;50.810;8.342;2023-06-22T07:17:19;21.90;99.90
5806;DHT22;2929;50.810;8.342;2023-06-22T07:19:46;22.00;99.90
5806;DHT22;2929;50.810;8.342;2023-06-22T07:22:13;22.10;99.90
5806;DHT22;2929;50.810;8.342;2023-06-22T07:24:40;22.10;99.90
5806;DHT22;2929;50.810;8.342;2023-06-22T07:27:09;22.30;99.90
5806;DHT22;2929;50.810;8.342;2023-06-22T07:29:37;22.30;99.90
5806;DHT22;2929;50.810;8.342;2023-06-22T07:32:06;22.30;99.90
5806;DHT22;2929;50.810;8.342;2023-06-22T07:34:34;22.30;99.90
5806;DHT22;2929;50.810;8.342;2023-06-22T07:37:01;22.30;99.90
5806;DHT22;2929;50.810;8.342;2023-06-22T07:39:28;22.30;99.90
5806;DHT22;2929;50.810;8.342;2023-06-22T07:41:55;22.30;99.90
5806;DHT22;2929;50.810;8.342;2023-06-22T07:44:23;22.40;99.90
5806;DHT22;2929;50.810;8.342;2023-06-22T07:46:50;22.50;99.90
5806;DHT22;2929;50.810;8.342;2023-06-22T07:49:17;22.50;99.90
5806;DHT22;2929;50.810;8.342;2023-06-22T07:51:44;22.60;99.90
5806;DHT22;2929;50.810;8.342;2023-06-22T07:54:11;22.80;99.90
5806;DHT22;2929;50.810;8.342;2023-06-22T07:56:38;22.80;99.90
5806;DHT22;2929;50.810;8.342;2023-06-22T07:59:05;22.80;99.90
5806;DHT22;2929;50.810;8.342;2023-06-22T08:01:33;23.00;99.90
5806;DHT22;2929;50.810;8.342;2023-06-22T08:04:00;23.10;99.90
5806;DHT22;2929;50.810;8.342;2023-06-22T08:06:30;23.30;99.90
5806;DHT22;2929;50.810;8.342;2023-06-22T08:08:57;23.20;99.90
5806;DHT22;2929;50.810;8.342;2023-06-22T08:11:24;23.30;99.90
5806;DHT22;2929;50.810;8.342;2023-06-22T08:13:52;23.20;99.90
5806;DHT22;2929;50.810;8.342;2023-06-22T08:16:21;23.20;99.90
5806;DHT22;2929;50.810;8.342;2023-06-22T08:18:50;23.20;99.90
5806;DHT22;2929;50.810;8.342;2023-06-22T08:21:17;23.20;99.90
5806;DHT22;2929;50.810;8.342;2023-06-22T08:23:44;23.20;99.90
5806;DHT22;2929;50.810;8.342;2023-06-22T08:26:11;23.40;99.90
5806;DHT22;2929;50.810;8.342;2023-06-22T08:28:38;23.40;99.90
5806;DHT22;2929;50.810;8.342;2023-06-22T08:31:05;23.50;99.90
5806;DHT22;2929;50.810;8.342;2023-06-22T08:33:32;23.50;99.90
5806;DHT22;2929;50.810;8.342;2023-06-22T08:36:01;23.60;99.90
5806;DHT22;2929;50.810;8.342;2023-06-22T08:38:28;23.80;99.90
5806;DHT22;2929;50.810;8.342;2023-06-22T08:40:55;23.90;99.90
5806;DHT22;2929;50.810;8.342;2023-06-22T08:43:22;23.80;99.90
5806;DHT22;2929;50.810;8.342;2023-06-22T08:45:49;23.90;99.90
5806;DHT22;2929;50.810;8.342;2023-06-22T08:48:16;24.00;99.90
5806;DHT22;2929;50.810;8.342;2023-06-22T08:50:43;24.10;99.90
5806;DHT22;2929;50.810;8.342;2023-06-22T08:53:12;24.10;99.90
5806;DHT22;2929;50.810;8.342;2023-06-22T08:55:39;24.30;99.90
5806;DHT22;2929;50.810;8.342;2023-06-22T08:58:05;24.40;99.90
5806;DHT22;2929;50.810;8.342;2023-06-22T09:00:32;24.30;99.90
5806;DHT22;2929;50.810;8.342;2023-06-22T09:03:00;24.70;99.90
5806;DHT22;2929;50.810;8.342;2023-06-22T09:05:28;24.60;99.90
5806;DHT22;2929;50.810;8.342;2023-06-22T09:07:56;24.50;99.90
5806;DHT22;2929;50.810;8.342;2023-06-22T09:10:25;24.40;99.90
5806;DHT22;2929;50.810;8.342;2023-06-22T09:12:52;24.40;99.90
5806;DHT22;2929;50.810;8.342;2023-06-22T09:15:19;24.40;99.90
5806;DHT22;2929;50.810;8.342;2023-06-22T09:17:47;24.40;99.90
5806;DHT22;2929;50.810;8.342;2023-06-22T09:20:14;24.50;99.90
5806;DHT22;2929;50.810;8.342;2023-06-22T09:22:41;24.50;99.90
5806;DHT22;2929;50.810;8.342;2023-06-22T09:25:09;24.60;99.90
5806;DHT22;2929;50.810;8.342;2023-06-22T09:27:37;24.70;99.90
5806;DHT22;2929;50.810;8.342;2023-06-22T09:30:06;24.70;99.90
5806;DHT22;2929;50.810;8.342;2023-06-22T09:32:33;24.80;99.90
5806;DHT22;2929;50.810;8.342;2023-06-22T09:35:03;25.10;99.90
5806;DHT22;2929;50.810;8.342;2023-06-22T09:37:32;25.30;99.90
5806;DHT22;2929;50.810;8.342;2023-06-22T09:39:59;25.20;99.90
5806;DHT22;2929;50.810;8.342;2023-06-22T09:42:26;25.50;99.90
5806;DHT22;2929;50.810;8.342;2023-06-22T09:44:54;25.40;99.90
5806;DHT22;2929;50.810;8.342;2023-06-22T09:47:21;25.50;99.90
5806;DHT22;2929;50.810;8.342;2023-06-22T09:49:48;25.70;99.90
5806;DHT22;2929;50.810;8.342;2023-06-22T09:52:16;25.80;99.90
5806;DHT22;2929;50.810;8.342;2023-06-22T09:54:43;25.80;99.90
5806;DHT22;2929;50.810;8.342;2023-06-22T09:57:10;25.80;99.90
5806;DHT22;2929;50.810;8.342;2023-06-22T09:59:37;25.80;99.90
5806;DHT22;2929;50.810;8.342;2023-06-22T10:02:07;25.90;99.90
5806;DHT22;2929;50.810;8.342;2023-06-22T10:04:34;25.80;99.90
5806;DHT22;2929;50.810;8.342;2023-06-22T10:07:02;25.90;99.90
5806;DHT22;2929;50.810;8.342;2023-06-22T10:09:29;26.00;99.90
5806;DHT22;2929;50.810;8.342;2023-06-22T10:11:56;26.00;99.90
5806;DHT22;2929;50.810;8.342;2023-06-22T10:14:23;25.90;99.90
5806;DHT22;2929;50.810;8.342;2023-06-22T10:16:52;26.00;99.90
5806;DHT22;2929;50.810;8.342;2023-06-22T10:19:20;26.20;99.90
5806;DHT22;2929;50.810;8.342;2023-06-22T10:21:47;26.40;99.90
5806;DHT22;2929;50.810;8.342;2023-06-22T10:24:14;26.60;99.90
5806;DHT22;2929;50.810;8.342;2023-06-22T10:26:41;26.60;99.90
5806;DHT22;2929;50.810;8.342;2023-06-22T10:29:08;26.40;99.90
5806;DHT22;2929;50.810;8.342;2023-06-22T10:31:35;26.30;99.90
5806;DHT22;2929;50.810;8.342;2023-06-22T10:34:02;26.40;99.90
5806;DHT22;2929;50.810;8.342;2023-06-22T10:36:30;26.40;99.90
5806;DHT22;2929;50.810;8.342;2023-06-22T10:38:57;26.40;99.90
5806;DHT22;2929;50.810;8.342;2023-06-22T10:41:27;26.40;99.90
5806;DHT22;2929;50.810;8.342;2023-06-22T10:43:55;26.30;99.90
5806;DHT22;2929;50.810;8.342;2023-06-22T12:47:11;28.50;99.90
5806;DHT22;2929;50.810;8.342;2023-06-22T12:49:38;28.80;99.90
5806;DHT22;2929;50.810;8.342;2023-06-22T12:52:09;29.40;99.90
5806;DHT22;2929;50.810;8.342;2023-06-22T12:54:39;30.00;99.90
5806;DHT22;2929;50.810;8.342;2023-06-22T12:57:06;29.90;99.90
5806;DHT22;2929;50.810;8.342;2023-06-22T12:59:33;29.80;99.90
5806;DHT22;2929;50.810;8.342;2023-06-22T13:02:00;30.20;99.90
5806;DHT22;2929;50.810;8.342;2023-06-22T13:04:27;30.50;99.90
5806;DHT22;2929;50.810;8.342;2023-06-22T13:06:55;31.00;99.90
5806;DHT22;2929;50.810;8.342;2023-06-22T13:09:22;30.80;99.90
5806;DHT22;2929;50.810;8.342;2023-06-22T13:11:50;31.00;99.90
5806;DHT22;2929;50.810;8.342;2023-06-22T13:14:18;31.40;99.90
5806;DHT22;2929;50.810;8.342;2023-06-22T13:16:45;31.50;99.90
5806;DHT22;2929;50.810;8.342;2023-06-22T13:19:12;31.90;99.90
5806;DHT22;2929;50.810;8.342;2023-06-22T13:21:40;31.90;99.90
5806;DHT22;2929;50.810;8.342;2023-06-22T13:24:07;32.30;99.90
5806;DHT22;2929;50.810;8.342;2023-06-22T13:26:34;32.40;99.90
5806;DHT22;2929;50.810;8.342;2023-06-22T13:29:03;32.30;99.90
5806;DHT22;2929;50.810;8.342;2023-06-22T13:31:30;31.70;99.90
5806;DHT22;2929;50.810;8.342;2023-06-22T13:33:57;31.30;99.90
5806;DHT22;2929;50.810;8.342;2023-06-22T13:36:24;31.00;99.90
5806;DHT22;2929;50.810;8.342;2023-06-22T13:38:51;31.10;99.90
5806;DHT22;2929;50.810;8.342;2023-06-22T13:41:18;32.00;99.90
5806;DHT22;2929;50.810;8.342;2023-06-22T13:43:45;32.10;99.90
5806;DHT22;2929;50.810;8.342;2023-06-22T13:46:13;32.00;99.90
5806;DHT22;2929;50.810;8.342;2023-06-22T13:48:40;31.70;99.90
5806;DHT22;2929;50.810;8.342;2023-06-22T13:51:07;31.30;99.90
5806;DHT22;2929;50.810;8.342;2023-06-22T13:53:34;31.00;99.90
5806;DHT22;2929;50.810;8.342;2023-06-22T13:56:01;29.80;99.90
5806;DHT22;2929;50.810;8.342;2023-06-22T13:58:28;29.50;99.90
5806;DHT22;2929;50.810;8.342;2023-06-22T14:00:55;28.90;99.90
5806;DHT22;2929;50.810;8.342;2023-06-22T14:03:23;28.80;99.90
5806;DHT22;2929;50.810;8.342;2023-06-22T14:05:51;28.50;99.90
5806;DHT22;2929;50.810;8.342;2023-06-22T14:08:22;28.30;99.90
5806;DHT22;2929;50.810;8.342;2023-06-22T14:10:50;28.20;99.90
5806;DHT22;2929;50.810;8.342;2023-06-22T14:13:19;28.10;99.90
5806;DHT22;2929;50.810;8.342;2023-06-22T14:15:46;28.20;99.90
5806;DHT22;2929;50.810;8.342;2023-06-22T14:18:14;28.10;99.90
5806;DHT22;2929;50.810;8.342;2023-06-22T14:20:43;28.10;99.90
5806;DHT22;2929;50.810;8.342;2023-06-22T14:23:11;28.30;99.90
5806;DHT22;2929;50.810;8.342;2023-06-22T14:25:39;28.50;99.90
5806;DHT22;2929;50.810;8.342;2023-06-22T14:28:06;28.40;99.90
5806;DHT22;2929;50.810;8.342;2023-06-22T14:30:33;28.10;99.90
5806;DHT22;2929;50.810;8.342;2023-06-22T14:33:00;27.90;99.90
5806;DHT22;2929;50.810;8.342;2023-06-22T14:35:27;27.70;99.90
5806;DHT22;2929;50.810;8.342;2023-06-22T14:37:55;27.50;99.90
5806;DHT22;2929;50.810;8.342;2023-06-22T14:40:22;27.10;99.90
5806;DHT22;2929;50.810;8.342;2023-06-22T14:42:49;26.70;99.90
5806;DHT22;2929;50.810;8.342;2023-06-22T14:45:16;26.50;99.90
5806;DHT22;2929;50.810;8.342;2023-06-22T14:47:43;26.40;99.90
5806;DHT22;2929;50.810;8.342;2023-06-22T14:50:10;26.30;99.90
5806;DHT22;2929;50.810;8.342;2023-06-22T14:52:37;26.20;99.90
5806;DHT22;2929;50.810;8.342;2023-06-22T14:55:06;26.10;99.90
5806;DHT22;2929;50.810;8.342;2023-06-22T14:57:33;25.90;99.90
5806;DHT22;2929;50.810;8.342;2023-06-22T15:00:00;25.90;99.90
5806;DHT22;2929;50.810;8.342;2023-06-22T15:02:28;26.00;99.90
5806;DHT22;2929;50.810;8.342;2023-06-22T15:04:55;25.90;99.90
5806;DHT22;2929;50.810;8.342;2023-06-22T15:07:23;25.90;99.90
5806;DHT22;2929;50.810;8.342;2023-06-22T15:09:50;25.80;99.90
5806;DHT22;2929;50.810;8.342;2023-06-22T15:12:18;25.80;99.90
5806;DHT22;2929;50.810;8.342;2023-06-22T15:14:45;25.70;99.90
5806;DHT22;2929;50.810;8.342;2023-06-22T15:17:12;25.50;99.90
5806;DHT22;2929;50.810;8.342;2023-06-22T15:19:41;25.50;99.90
5806;DHT22;2929;50.810;8.342;2023-06-22T15:22:08;25.30;99.90
5806;DHT22;2929;50.810;8.342;2023-06-22T15:24:35;25.10;99.90
5806;DHT22;2929;50.810;8.342;2023-06-22T15:27:02;24.80;99.90
5806;DHT22;2929;50.810;8.342;2023-06-22T15:29:31;24.50;99.90
5806;DHT22;2929;50.810;8.342;2023-06-22T15:31:59;24.20;99.90
5806;DHT22;2929;50.810;8.342;2023-06-22T15:34:27;23.90;99.90
5806;DHT22;2929;50.810;8.342;2023-06-22T15:36:54;23.80;99.90
5806;DHT22;2929;50.810;8.342;2023-06-22T15:39:21;23.70;99.90
5806;DHT22;2929;50.810;8.342;2023-06-22T15:41:48;23.60;99.90
5806;DHT22;2929;50.810;8.342;2023-06-22T15:44:15;23.60;99.90
5806;DHT22;2929;50.810;8.342;2023-06-22T15:46:44;23.50;99.90
5806;DHT22;2929;50.810;8.342;2023-06-22T15:49:11;23.10;99.90
5806;DHT22;2929;50.810;8.342;2023-06-22T15:51:38;22.50;99.90
5806;DHT22;2929;50.810;8.342;2023-06-22T15:54:05;22.00;99.90
5806;DHT22;2929;50.810;8.342;2023-06-22T15:56:32;21.80;99.90
5806;DHT22;2929;50.810;8.342;2023-06-22T15:58:59;21.60;99.90
5806;DHT22;2929;50.810;8.342;2023-06-22T16:01:26;21.30;99.90
5806;DHT22;2929;50.810;8.342;2023-06-22T16:03:55;21.20;99.90
5806;DHT22;2929;50.810;8.342;2023-06-22T16:06:22;21.10;99.90
5806;DHT22;2929;50.810;8.342;2023-06-22T16:08:49;21.00;99.90
5806;DHT22;2929;50.810;8.342;2023-06-22T16:11:16;21.00;99.90
5806;DHT22;2929;50.810;8.342;2023-06-22T16:13:43;21.00;99.90
5806;DHT22;2929;50.810;8.342;2023-06-22T16:16:11;20.90;99.90
5806;DHT22;2929;50.810;8.342;2023-06-22T16:18:38;20.80;99.90
5806;DHT22;2929;50.810;8.342;2023-06-22T16:21:09;20.70;99.90
5806;DHT22;2929;50.810;8.342;2023-06-22T16:23:36;20.70;99.90
5806;DHT22;2929;50.810;8.342;2023-06-22T16:26:03;20.60;99.90
5806;DHT22;2929;50.810;8.342;2023-06-22T16:28:31;20.70;99.90
5806;DHT22;2929;50.810;8.342;2023-06-22T16:30:58;20.60;99.90
5806;DHT22;2929;50.810;8.342;2023-06-22T16:33:25;20.60;99.90
5806;DHT22;2929;50.810;8.342;2023-06-22T16:35:52;20.70;99.90
5806;DHT22;2929;50.810;8.342;2023-06-22T16:38:20;20.60;99.90
5806;DHT22;2929;50.810;8.342;2023-06-22T16:40:47;20.50;99.90
5806;DHT22;2929;50.810;8.342;2023-06-22T16:43:15;20.60;99.90
5806;DHT22;2929;50.810;8.342;2023-06-22T16:45:41;20.60;99.90
5806;DHT22;2929;50.810;8.342;2023-06-22T16:48:08;20.60;99.90
5806;DHT22;2929;50.810;8.342;2023-06-22T16:50:35;20.60;99.90
5806;DHT22;2929;50.810;8.342;2023-06-22T16:53:02;20.60;99.90
5806;DHT22;2929;50.810;8.342;2023-06-22T16:55:31;20.50;99.90
5806;DHT22;2929;50.810;8.342;2023-06-22T16:57:59;20.60;99.90
5806;DHT22;2929;50.810;8.342;2023-06-22T17:00:27;20.50;99.90
5806;DHT22;2929;50.810;8.342;2023-06-22T17:02:58;20.40;99.90
5806;DHT22;2929;50.810;8.342;2023-06-22T17:05:27;20.30;99.90
5806;DHT22;2929;50.810;8.342;2023-06-22T17:07:57;20.30;99.90
5806;DHT22;2929;50.810;8.342;2023-06-22T17:10:25;20.40;99.90
5806;DHT22;2929;50.810;8.342;2023-06-22T17:12:54;20.50;99.90
5806;DHT22;2929;50.810;8.342;2023-06-22T17:15:22;20.50;99.90
5806;DHT22;2929;50.810;8.342;2023-06-22T17:17:49;20.50;99.90
5806;DHT22;2929;50.810;8.342;2023-06-22T17:20:18;20.60;99.90
5806;DHT22;2929;50.810;8.342;2023-06-22T17:22:45;20.60;99.90
5806;DHT22;2929;50.810;8.342;2023-06-22T17:25:14;20.60;99.90
5806;DHT22;2929;50.810;8.342;2023-06-22T17:27:41;20.50;99.90
5806;DHT22;2929;50.810;8.342;2023-06-22T17:30:11;20.50;99.90
5806;DHT22;2929;50.810;8.342;2023-06-22T17:32:45;20.40;99.90
5806;DHT22;2929;50.810;8.342;2023-06-22T17:35:13;20.40;99.90
5806;DHT22;2929;50.810;8.342;2023-06-22T17:37:47;20.50;99.90
5806;DHT22;2929;50.810;8.342;2023-06-22T17:40:19;20.50;99.90
5806;DHT22;2929;50.810;8.342;2023-06-22T17:42:46;20.50;99.90
5806;DHT22;2929;50.810;8.342;2023-06-22T17:45:20;20.60;99.90
5806;DHT22;2929;50.810;8.342;2023-06-22T17:47:48;20.50;99.90
5806;DHT22;2929;50.810;8.342;2023-06-22T17:50:15;20.50;99.90
5806;DHT22;2929;50.810;8.342;2023-06-22T17:52:49;20.40;99.90
5806;DHT22;2929;50.810;8.342;2023-06-22T17:55:20;20.40;99.90
5806;DHT22;2929;50.810;8.342;2023-06-22T17:57:51;20.40;99.90
5806;DHT22;2929;50.810;8.342;2023-06-22T18:00:20;20.40;99.90
5806;DHT22;2929;50.810;8.342;2023-06-22T18:02:49;20.40;99.90
5806;DHT22;2929;50.810;8.342;2023-06-22T18:05:17;20.30;99.90
5806;DHT22;2929;50.810;8.342;2023-06-22T18:07:44;20.40;99.90